sensor_id;sensor_type;location;lat;lon;timestamp;pressure;altitude;pressure_sealevel;temperature;humidity
54512;BME280;40419;47.438;19.026;2022-12-05T00:01:15;100468.50;;;4.29;100.00
54512;BME280;40419;47.438;19.026;2022-12-05T00:03:43;100462.28;;;4.29;100.00
54512;BME280;40419;47.438;19.026;2022-12-05T00:06:13;100456.38;;;4.25;100.00
54512;BME280;40419;47.438;19.026;2022-12-05T00:08:44;100464.72;;;4.22;100.00
54512;BME280;40419;47.438;19.026;2022-12-05T00:11:19;100454.97;;;4.31;100.00
54512;BME280;40419;47.438;19.026;2022-12-05T00:13:52;100463.84;;;4.31;100.00
54512;BME280;40419;47.438;19.026;2022-12-05T00:16:31;100458.16;;;4.44;100.00
54512;BME280;40419;47.438;19.026;2022-12-05T00:19:02;100456.06;;;4.38;100.00
54512;BME280;40419;47.438;19.026;2022-12-05T00:21:34;100457.22;;;4.25;100.00
54512;BME280;40419;47.438;19.026;2022-12-05T00:24:04;100459.13;;;4.15;100.00
54512;BME280;40419;47.438;19.026;2022-12-05T00:26:34;100460.50;;;4.19;100.00
54512;BME280;40419;47.438;19.026;2022-12-05T00:29:03;100463.75;;;4.13;100.00
54512;BME280;40419;47.438;19.026;2022-12-05T00:31:34;100456.00;;;4.10;100.00
54512;BME280;40419;47.438;19.026;2022-12-05T00:34:02;100453.47;;;4.08;100.00
54512;BME280;40419;47.438;19.026;2022-12-05T00:36:31;100452.31;;;4.21;100.00
54512;BME280;40419;47.438;19.026;2022-12-05T00:39:02;100456.13;;;4.18;100.00
54512;BME280;40419;47.438;19.026;2022-12-05T00:41:29;100444.97;;;4.23;100.00
54512;BME280;40419;47.438;19.026;2022-12-05T00:43:57;100451.25;;;4.32;100.00
54512;BME280;40419;47.438;19.026;2022-12-05T00:46:26;100453.38;;;4.38;100.00
54512;BME280;40419;47.438;19.026;2022-12-05T00:48:56;100450.88;;;4.26;100.00
54512;BME280;40419;47.438;19.026;2022-12-05T00:51:27;100462.56;;;4.25;100.00
54512;BME280;40419;47.438;19.026;2022-12-05T00:54:00;100454.00;;;4.22;100.00
54512;BME280;40419;47.438;19.026;2022-12-05T00:56:30;100461.97;;;4.04;100.00
54512;BME280;40419;47.438;19.026;2022-12-05T00:58:57;100456.59;;;4.04;100.00
54512;BME280;40419;47.438;19.026;2022-12-05T01:01:30;100459.88;;;3.98;100.00
54512;BME280;40419;47.438;19.026;2022-12-05T01:04:04;100451.53;;;4.01;100.00
54512;BME280;40419;47.438;19.026;2022-12-05T01:06:33;100447.31;;;3.98;100.00
54512;BME280;40419;47.438;19.026;2022-12-05T01:08:59;100453.81;;;3.96;100.00
54512;BME280;40419;47.438;19.026;2022-12-05T01:11:28;100445.00;;;4.13;100.00
54512;BME280;40419;47.438;19.026;2022-12-05T01:13:56;100438.50;;;4.16;100.00
54512;BME280;40419;47.438;19.026;2022-12-05T01:16:27;100442.88;;;4.17;100.00
54512;BME280;40419;47.438;19.026;2022-12-05T01:18:55;100445.06;;;3.94;100.00
54512;BME280;40419;47.438;19.026;2022-12-05T01:21:24;100439.03;;;4.19;100.00
54512;BME280;40419;47.438;19.026;2022-12-05T01:23:52;100433.03;;;4.07;100.00
54512;BME280;40419;47.438;19.026;2022-12-05T01:26:21;100435.75;;;3.98;100.00
54512;BME280;40419;47.438;19.026;2022-12-05T01:28:50;100427.03;;;3.86;100.00
54512;BME280;40419;47.438;19.026;2022-12-05T01:33:51;100418.03;;;3.87;100.00
54512;BME280;40419;47.438;19.026;2022-12-05T01:36:19;100425.03;;;3.88;100.00
54512;BME280;40419;47.438;19.026;2022-12-05T01:38:47;100427.03;;;3.86;100.00
54512;BME280;40419;47.438;19.026;2022-12-05T01:41:16;100430.44;;;3.78;100.00
54512;BME280;40419;47.438;19.026;2022-12-05T01:43:58;100428.25;;;4.01;100.00
54512;BME280;40419;47.438;19.026;2022-12-05T01:46:25;100444.66;;;3.88;100.00
54512;BME280;40419;47.438;19.026;2022-12-05T01:48:55;100434.81;;;3.79;100.00
54512;BME280;40419;47.438;19.026;2022-12-05T01:51:25;100432.81;;;3.91;100.00
54512;BME280;40419;47.438;19.026;2022-12-05T01:53:52;100435.22;;;3.84;100.00
54512;BME280;40419;47.438;19.026;2022-12-05T01:56:18;100428.69;;;3.97;100.00
54512;BME280;40419;47.438;19.026;2022-12-05T01:58:44;100439.69;;;3.94;100.00
54512;BME280;40419;47.438;19.026;2022-12-05T02:01:13;100427.31;;;3.93;100.00
54512;BME280;40419;47.438;19.026;2022-12-05T02:03:47;100425.22;;;3.77;100.00
54512;BME280;40419;47.438;19.026;2022-12-05T02:06:17;100434.38;;;3.84;100.00
54512;BME280;40419;47.438;19.026;2022-12-05T02:08:46;100430.69;;;3.95;100.00
54512;BME280;40419;47.438;19.026;2022-12-05T02:11:20;100433.81;;;3.80;100.00
54512;BME280;40419;47.438;19.026;2022-12-05T02:31:02;100440.63;;;3.75;100.00
54512;BME280;40419;47.438;19.026;2022-12-05T02:33:39;100444.13;;;3.75;100.00
54512;BME280;40419;47.438;19.026;2022-12-05T02:36:14;100437.50;;;3.79;100.00
54512;BME280;40419;47.438;19.026;2022-12-05T02:41:35;100447.66;;;3.56;100.00
54512;BME280;40419;47.438;19.026;2022-12-05T02:47:00;100439.63;;;3.66;100.00
54512;BME280;40419;47.438;19.026;2022-12-05T02:49:31;100456.41;;;3.68;100.00
54512;BME280;40419;47.438;19.026;2022-12-05T02:52:09;100448.38;;;3.68;100.00
54512;BME280;40419;47.438;19.026;2022-12-05T02:54:40;100455.56;;;3.67;100.00
54512;BME280;40419;47.438;19.026;2022-12-05T02:57:07;100445.06;;;3.94;100.00
54512;BME280;40419;47.438;19.026;2022-12-05T02:59:37;100448.19;;;3.89;100.00
54512;BME280;40419;47.438;19.026;2022-12-05T03:02:07;100448.50;;;3.76;100.00
54512;BME280;40419;47.438;19.026;2022-12-05T03:04:32;100454.66;;;3.86;100.00
54512;BME280;40419;47.438;19.026;2022-12-05T03:07:08;100452.56;;;3.80;100.00
54512;BME280;40419;47.438;19.026;2022-12-05T03:12:11;100451.72;;;3.80;100.00
54512;BME280;40419;47.438;19.026;2022-12-05T03:14:41;100449.63;;;3.73;100.00
54512;BME280;40419;47.438;19.026;2022-12-05T03:17:17;100452.31;;;3.73;100.00
54512;BME280;40419;47.438;19.026;2022-12-05T03:20:14;100449.38;;;3.67;100.00
54512;BME280;40419;47.438;19.026;2022-12-05T03:22:50;100449.31;;;3.86;100.00
54512;BME280;40419;47.438;19.026;2022-12-05T03:25:21;100444.63;;;3.98;100.00
54512;BME280;40419;47.438;19.026;2022-12-05T03:27:59;100446.47;;;3.88;100.00
54512;BME280;40419;47.438;19.026;2022-12-05T03:30:38;100447.78;;;3.74;100.00
54512;BME280;40419;47.438;19.026;2022-12-05T03:33:18;100462.31;;;3.62;100.00
54512;BME280;40419;47.438;19.026;2022-12-05T03:38:35;100445.41;;;3.71;100.00
54512;BME280;40419;47.438;19.026;2022-12-05T03:42:01;100454.25;;;3.81;100.00
54512;BME280;40419;47.438;19.026;2022-12-05T03:44:41;100445.09;;;3.84;100.00
54512;BME280;40419;47.438;19.026;2022-12-05T03:47:16;100444.56;;;3.70;100.00
54512;BME280;40419;47.438;19.026;2022-12-05T03:49:50;100450.88;;;3.79;100.00
54512;BME280;40419;47.438;19.026;2022-12-05T03:55:00;100437.78;;;3.76;100.00
54512;BME280;40419;47.438;19.026;2022-12-05T03:57:35;100434.47;;;4.02;100.00
54512;BME280;40419;47.438;19.026;2022-12-05T04:00:09;100447.78;;;3.74;100.00
54512;BME280;40419;47.438;19.026;2022-12-05T04:02:38;100446.41;;;3.70;100.00
54512;BME280;40419;47.438;19.026;2022-12-05T04:05:49;100445.25;;;3.82;100.00
54512;BME280;40419;47.438;19.026;2022-12-05T04:08:21;100453.88;;;3.66;100.00
54512;BME280;40419;47.438;19.026;2022-12-05T04:10:56;100444.84;;;3.67;100.00
54512;BME280;40419;47.438;19.026;2022-12-05T04:15:58;100446.13;;;3.73;100.00
54512;BME280;40419;47.438;19.026;2022-12-05T04:21:48;100442.84;;;3.69;100.00
54512;BME280;40419;47.438;19.026;2022-12-05T04:24:22;100447.09;;;3.72;100.00
54512;BME280;40419;47.438;19.026;2022-12-05T04:29:43;100446.81;;;3.65;100.00
54512;BME280;40419;47.438;19.026;2022-12-05T04:32:17;100446.41;;;3.70;100.00
54512;BME280;40419;47.438;19.026;2022-12-05T04:34:54;100451.84;;;3.88;100.00
54512;BME280;40419;47.438;19.026;2022-12-05T04:37:27;100444.72;;;3.69;100.00
54512;BME280;40419;47.438;19.026;2022-12-05T04:40:14;100437.66;;;3.68;100.00
54512;BME280;40419;47.438;19.026;2022-12-05T04:42:44;100438.50;;;3.68;100.00
54512;BME280;40419;47.438;19.026;2022-12-05T04:45:14;100425.38;;;3.65;100.00
54512;BME280;40419;47.438;19.026;2022-12-05T04:47:45;100440.31;;;3.78;100.00
54512;BME280;40419;47.438;19.026;2022-12-05T04:50:14;100420.47;;;3.70;100.00
54512;BME280;40419;47.438;19.026;2022-12-05T04:52:43;100425.56;;;3.54;100.00
54512;BME280;40419;47.438;19.026;2022-12-05T04:55:16;100429.91;;;3.75;100.00
54512;BME280;40419;47.438;19.026;2022-12-05T04:57:59;100427.81;;;3.59;100.00
54512;BME280;40419;47.438;19.026;2022-12-05T05:00:28;100432.88;;;3.62;100.00
54512;BME280;40419;47.438;19.026;2022-12-05T05:03:02;100424.56;;;3.65;100.00
54512;BME280;40419;47.438;19.026;2022-12-05T05:05:34;100428.34;;;3.62;100.00
54512;BME280;40419;47.438;19.026;2022-12-05T05:08:14;100421.91;;;3.55;100.00
54512;BME280;40419;47.438;19.026;2022-12-05T05:11:15;100438.06;;;3.73;100.00
54512;BME280;40419;47.438;19.026;2022-12-05T05:13:44;100434.97;;;3.68;100.00
54512;BME280;40419;47.438;19.026;2022-12-05T05:16:15;100431.16;;;3.61;100.00
54512;BME280;40419;47.438;19.026;2022-12-05T05:18:47;100439.94;;;3.63;100.00
54512;BME280;40419;47.438;19.026;2022-12-05T05:21:18;100445.94;;;3.84;100.00
54512;BME280;40419;47.438;19.026;2022-12-05T05:23:44;100444.13;;;3.75;100.00
54512;BME280;40419;47.438;19.026;2022-12-05T05:26:12;100452.56;;;3.80;100.00
54512;BME280;40419;47.438;19.026;2022-12-05T05:28:40;100452.41;;;3.82;100.00
54512;BME280;40419;47.438;19.026;2022-12-05T05:31:06;100443.69;;;3.80;100.00
54512;BME280;40419;47.438;19.026;2022-12-05T05:33:35;100435.69;;;3.70;100.00
54512;BME280;40419;47.438;19.026;2022-12-05T05:36:11;100450.50;;;3.64;100.00
54512;BME280;40419;47.438;19.026;2022-12-05T05:38:40;100448.34;;;3.78;100.00
54512;BME280;40419;47.438;19.026;2022-12-05T05:41:11;100446.63;;;3.86;100.00
54512;BME280;40419;47.438;19.026;2022-12-05T05:43:42;100453.13;;;3.84;100.00
54512;BME280;40419;47.438;19.026;2022-12-05T05:46:11;100456.41;;;3.78;100.00
54512;BME280;40419;47.438;19.026;2022-12-05T05:48:39;100457.81;;;3.72;100.00
54512;BME280;40419;47.438;19.026;2022-12-05T05:51:06;100456.94;;;3.81;100.00
54512;BME280;40419;47.438;19.026;2022-12-05T05:53:31;100454.94;;;3.93;100.00
54512;BME280;40419;47.438;19.026;2022-12-05T05:56:02;100450.72;;;3.90;100.00
54512;BME280;40419;47.438;19.026;2022-12-05T05:58:32;100453.81;;;3.86;100.00
54512;BME280;40419;47.438;19.026;2022-12-05T06:01:08;100456.69;;;3.65;100.00
54512;BME280;40419;47.438;19.026;2022-12-05T06:03:34;100456.13;;;3.61;100.00
54512;BME280;40419;47.438;19.026;2022-12-05T06:06:05;100455.84;;;3.64;100.00
54512;BME280;40419;47.438;19.026;2022-12-05T06:08:36;100456.78;;;3.83;100.00
54512;BME280;40419;47.438;19.026;2022-12-05T06:11:07;100463.97;;;3.92;100.00
54512;BME280;40419;47.438;19.026;2022-12-05T06:13:33;100477.81;;;3.78;100.00
54512;BME280;40419;47.438;19.026;2022-12-05T06:16:01;100479.22;;;3.72;100.00
54512;BME280;40419;47.438;19.026;2022-12-05T06:18:34;100485.13;;;3.85;100.00
54512;BME280;40419;47.438;19.026;2022-12-05T06:21:04;100481.75;;;3.83;100.00
54512;BME280;40419;47.438;19.026;2022-12-05T06:23:38;100476.66;;;3.90;100.00
54512;BME280;40419;47.438;19.026;2022-12-05T06:26:10;100477.53;;;3.71;100.00
54512;BME280;40419;47.438;19.026;2022-12-05T06:28:40;100481.22;;;3.70;100.00
54512;BME280;40419;47.438;19.026;2022-12-05T06:31:11;100479.34;;;3.80;100.00
54512;BME280;40419;47.438;19.026;2022-12-05T06:33:39;100484.69;;;3.80;100.00
54512;BME280;40419;47.438;19.026;2022-12-05T06:36:12;100489.53;;;3.77;100.00
54512;BME280;40419;47.438;19.026;2022-12-05T06:38:40;100480.50;;;3.68;100.00
54512;BME280;40419;47.438;19.026;2022-12-05T06:41:10;100479.19;;;3.82;100.00
54512;BME280;40419;47.438;19.026;2022-12-05T06:43:36;100484.41;;;3.83;100.00
54512;BME280;40419;47.438;19.026;2022-12-05T06:46:11;100491.63;;;3.83;100.00
54512;BME280;40419;47.438;19.026;2022-12-05T06:48:39;100492.44;;;3.93;100.00
54512;BME280;40419;47.438;19.026;2022-12-05T06:51:08;100493.72;;;3.99;100.00
54512;BME280;40419;47.438;19.026;2022-12-05T06:53:36;100483.84;;;3.99;100.00
54512;BME280;40419;47.438;19.026;2022-12-05T06:56:04;100483.16;;;3.97;100.00
54512;BME280;40419;47.438;19.026;2022-12-05T06:58:31;100483.44;;;3.94;100.00
54512;BME280;40419;47.438;19.026;2022-12-05T07:00:57;100491.03;;;3.89;100.00
54512;BME280;40419;47.438;19.026;2022-12-05T07:03:41;100498.25;;;3.79;100.00
54512;BME280;40419;47.438;19.026;2022-12-05T07:06:09;100491.44;;;4.04;100.00
54512;BME280;40419;47.438;19.026;2022-12-05T07:08:42;100492.13;;;4.16;100.00
54512;BME280;40419;47.438;19.026;2022-12-05T07:11:08;100491.81;;;4.19;100.00
54512;BME280;40419;47.438;19.026;2022-12-05T07:13:38;100500.34;;;3.95;100.00
54512;BME280;40419;47.438;19.026;2022-12-05T07:16:04;100504.00;;;4.03;100.00
54512;BME280;40419;47.438;19.026;2022-12-05T07:18:33;100505.38;;;4.17;100.00
54512;BME280;40419;47.438;19.026;2022-12-05T07:21:06;100509.94;;;3.97;100.00
54512;BME280;40419;47.438;19.026;2022-12-05T07:23:32;100514.72;;;4.03;100.00
54512;BME280;40419;47.438;19.026;2022-12-05T07:26:10;100507.66;;;4.02;100.00
54512;BME280;40419;47.438;19.026;2022-12-05T07:28:38;100515.13;;;4.08;100.00
54512;BME280;40419;47.438;19.026;2022-12-05T07:31:13;100519.66;;;4.08;100.00
54512;BME280;40419;47.438;19.026;2022-12-05T07:33:39;100527.50;;;4.19;100.00
54512;BME280;40419;47.438;19.026;2022-12-05T07:36:09;100528.22;;;4.21;100.00
54512;BME280;40419;47.438;19.026;2022-12-05T07:38:38;100528.03;;;4.33;100.00
54512;BME280;40419;47.438;19.026;2022-12-05T07:41:16;100526.59;;;4.38;100.00
54512;BME280;40419;47.438;19.026;2022-12-05T07:43:45;100528.88;;;4.33;100.00
54512;BME280;40419;47.438;19.026;2022-12-05T07:46:11;100529.53;;;4.45;100.00
54512;BME280;40419;47.438;19.026;2022-12-05T07:48:39;100537.63;;;4.35;100.00
54512;BME280;40419;47.438;19.026;2022-12-05T07:51:06;100538.16;;;4.39;100.00
54512;BME280;40419;47.438;19.026;2022-12-05T07:53:35;100542.03;;;4.26;100.00
54512;BME280;40419;47.438;19.026;2022-12-05T07:56:02;100552.75;;;4.26;100.00
54512;BME280;40419;47.438;19.026;2022-12-05T07:58:29;100538.06;;;4.31;100.00
54512;BME280;40419;47.438;19.026;2022-12-05T08:00:55;100540.31;;;4.35;100.00
54512;BME280;40419;47.438;19.026;2022-12-05T08:03:23;100540.13;;;4.47;100.00
54512;BME280;40419;47.438;19.026;2022-12-05T08:05:51;100555.06;;;4.49;100.00
54512;BME280;40419;47.438;19.026;2022-12-05T08:08:16;100543.38;;;4.78;100.00
54512;BME280;40419;47.438;19.026;2022-12-05T08:10:42;100546.50;;;4.73;100.00
54512;BME280;40419;47.438;19.026;2022-12-05T08:13:09;100551.22;;;4.61;100.00
54512;BME280;40419;47.438;19.026;2022-12-05T08:15:39;100548.09;;;4.66;100.00
54512;BME280;40419;47.438;19.026;2022-12-05T08:18:12;100546.88;;;4.51;100.00
54512;BME280;40419;47.438;19.026;2022-12-05T08:20:42;100550.69;;;4.48;100.00
54512;BME280;40419;47.438;19.026;2022-12-05T08:23:08;100549.81;;;4.57;100.00
54512;BME280;40419;47.438;19.026;2022-12-05T08:25:35;100549.56;;;4.51;100.00
54512;BME280;40419;47.438;19.026;2022-12-05T08:28:01;100545.34;;;4.48;100.00
54512;BME280;40419;47.438;19.026;2022-12-05T08:30:29;100552.59;;;4.38;100.00
54512;BME280;40419;47.438;19.026;2022-12-05T08:32:54;100546.94;;;4.41;100.00
54512;BME280;40419;47.438;19.026;2022-12-05T08:35:20;100557.84;;;4.57;100.00
54512;BME280;40419;47.438;19.026;2022-12-05T08:37:45;100552.47;;;4.67;100.00
54512;BME280;40419;47.438;19.026;2022-12-05T08:40:11;100557.09;;;4.75;100.00
54512;BME280;40419;47.438;19.026;2022-12-05T08:42:38;100549.31;;;4.82;100.00
54512;BME280;40419;47.438;19.026;2022-12-05T08:45:04;100558.34;;;4.81;100.00
54512;BME280;40419;47.438;19.026;2022-12-05T08:47:30;100556.31;;;4.92;100.00
54512;BME280;40419;47.438;19.026;2022-12-05T08:49:55;100551.44;;;4.78;100.00
54512;BME280;40419;47.438;19.026;2022-12-05T08:52:23;100552.56;;;4.75;100.00
54512;BME280;40419;47.438;19.026;2022-12-05T08:54:51;100549.44;;;4.80;100.00
54512;BME280;40419;47.438;19.026;2022-12-05T08:57:19;100541.16;;;4.73;100.00
54512;BME280;40419;47.438;19.026;2022-12-05T08:59:46;100545.59;;;4.92;100.00
54512;BME280;40419;47.438;19.026;2022-12-05T09:02:14;100544.00;;;5.18;100.00
54512;BME280;40419;47.438;19.026;2022-12-05T09:04:40;100553.34;;;4.95;100.00
54512;BME280;40419;47.438;19.026;2022-12-05T09:07:10;100557.53;;;4.98;100.00
54512;BME280;40419;47.438;19.026;2022-12-05T09:09:35;100548.75;;;5.06;100.00
54512;BME280;40419;47.438;19.026;2022-12-05T09:12:06;100538.59;;;5.00;100.00
54512;BME280;40419;47.438;19.026;2022-12-05T09:14:36;100546.56;;;4.91;100.00
54512;BME280;40419;47.438;19.026;2022-12-05T09:17:02;100545.78;;;5.09;100.00
54512;BME280;40419;47.438;19.026;2022-12-05T09:19:28;100539.25;;;5.11;100.00
54512;BME280;40419;47.438;19.026;2022-12-05T09:21:57;100534.63;;;5.04;100.00
54512;BME280;40419;47.438;19.026;2022-12-05T09:24:23;100544.47;;;5.13;100.00
54512;BME280;40419;47.438;19.026;2022-12-05T09:26:49;100529.38;;;5.12;100.00
54512;BME280;40419;47.438;19.026;2022-12-05T09:29:14;100540.38;;;4.91;100.00
54512;BME280;40419;47.438;19.026;2022-12-05T09:31:41;100542.78;;;5.12;100.00
54512;BME280;40419;47.438;19.026;2022-12-05T09:34:09;100540.06;;;4.94;100.00
54512;BME280;40419;47.438;19.026;2022-12-05T09:36:36;100534.03;;;5.10;100.00
54512;BME280;40419;47.438;19.026;2022-12-05T09:39:04;100541.34;;;5.36;100.00
54512;BME280;40419;47.438;19.026;2022-12-05T09:42:03;100533.97;;;5.20;100.00
54512;BME280;40419;47.438;19.026;2022-12-05T09:44:48;100540.09;;;5.12;100.00
54512;BME280;40419;47.438;19.026;2022-12-05T09:52:42;100525.84;;;5.29;100.00
54512;BME280;40419;47.438;19.026;2022-12-05T09:55:18;100525.84;;;5.29;100.00
54512;BME280;40419;47.438;19.026;2022-12-05T09:57:57;100521.88;;;5.33;100.00
54512;BME280;40419;47.438;19.026;2022-12-05T10:00:25;100521.31;;;5.48;100.00
54512;BME280;40419;47.438;19.026;2022-12-05T10:05:45;100519.66;;;5.47;100.00
54512;BME280;40419;47.438;19.026;2022-12-05T10:08:27;100508.34;;;5.43;100.00
54512;BME280;40419;47.438;19.026;2022-12-05T10:11:02;100510.50;;;5.58;100.00
54512;BME280;40419;47.438;19.026;2022-12-05T10:13:40;100509.59;;;5.31;100.00
54512;BME280;40419;47.438;19.026;2022-12-05T10:16:26;100491.34;;;5.35;100.00
54512;BME280;40419;47.438;19.026;2022-12-05T10:19:33;100496.09;;;5.59;100.00
54512;BME280;40419;47.438;19.026;2022-12-05T10:25:10;100477.84;;;5.71;100.00
54512;BME280;40419;47.438;19.026;2022-12-05T10:27:50;100486.31;;;5.76;100.00
54512;BME280;40419;47.438;19.026;2022-12-05T10:33:03;100473.66;;;5.94;100.00
54512;BME280;40419;47.438;19.026;2022-12-05T10:38:03;100471.81;;;5.95;100.00
54512;BME280;40419;47.438;19.026;2022-12-05T10:40:36;100471.31;;;5.91;100.00
54512;BME280;40419;47.438;19.026;2022-12-05T10:43:04;100473.63;;;5.86;100.00
54512;BME280;40419;47.438;19.026;2022-12-05T10:45:41;100466.72;;;5.83;100.00
54512;BME280;40419;47.438;19.026;2022-12-05T10:48:10;100468.50;;;5.75;100.00
54512;BME280;40419;47.438;19.026;2022-12-05T10:50:42;100474.72;;;5.75;100.00
54512;BME280;40419;47.438;19.026;2022-12-05T10:53:12;100478.63;;;5.81;100.00
54512;BME280;40419;47.438;19.026;2022-12-05T10:55:44;100460.34;;;5.84;100.00
54512;BME280;40419;47.438;19.026;2022-12-05T11:00:41;100463.97;;;5.75;100.00
54512;BME280;40419;47.438;19.026;2022-12-05T11:05:57;100458.69;;;5.65;100.00
54512;BME280;40419;47.438;19.026;2022-12-05T11:08:26;100453.00;;;5.68;100.00
54512;BME280;40419;47.438;19.026;2022-12-05T11:11:18;100445.88;;;5.59;100.00
54512;BME280;40419;47.438;19.026;2022-12-05T11:18:54;100450.63;;;5.65;100.00
54512;BME280;40419;47.438;19.026;2022-12-05T11:21:20;100437.63;;;5.79;100.00
54512;BME280;40419;47.438;19.026;2022-12-05T11:23:47;100441.00;;;5.81;100.00
54512;BME280;40419;47.438;19.026;2022-12-05T11:26:31;100443.03;;;5.87;100.00
54512;BME280;40419;47.438;19.026;2022-12-05T11:29:04;100451.31;;;6.12;100.00
54512;BME280;40419;47.438;19.026;2022-12-05T11:31:54;100455.75;;;5.77;100.00
54512;BME280;40419;47.438;19.026;2022-12-05T11:34:27;100449.69;;;5.75;100.00
54512;BME280;40419;47.438;19.026;2022-12-05T11:37:00;100448.41;;;5.87;100.00
54512;BME280;40419;47.438;19.026;2022-12-05T11:39:28;100443.19;;;6.03;100.00
54512;BME280;40419;47.438;19.026;2022-12-05T11:56:53;100418.41;;;6.18;100.00
54512;BME280;40419;47.438;19.026;2022-12-05T11:59:41;100413.94;;;6.00;100.00
54512;BME280;40419;47.438;19.026;2022-12-05T12:02:51;100399.56;;;5.92;100.00
54512;BME280;40419;47.438;19.026;2022-12-05T12:05:44;100394.31;;;5.82;100.00
54512;BME280;40419;47.438;19.026;2022-12-05T12:08:29;100389.34;;;5.95;100.00
54512;BME280;40419;47.438;19.026;2022-12-05T12:19:46;100399.94;;;5.71;100.00
54512;BME280;40419;47.438;19.026;2022-12-05T12:36:26;100384.78;;;5.88;100.00
54512;BME280;40419;47.438;19.026;2022-12-05T13:01:12;100371.81;;;5.57;100.00
54512;BME280;40419;47.438;19.026;2022-12-05T13:06:20;100361.75;;;5.85;100.00
54512;BME280;40419;47.438;19.026;2022-12-05T13:08:52;100364.72;;;5.74;100.00
54512;BME280;40419;47.438;19.026;2022-12-05T13:11:21;100371.09;;;5.73;100.00
54512;BME280;40419;47.438;19.026;2022-12-05T13:13:56;100369.78;;;5.77;100.00
54512;BME280;40419;47.438;19.026;2022-12-05T13:16:30;100358.88;;;5.78;100.00
54512;BME280;40419;47.438;19.026;2022-12-05T13:18:57;100361.75;;;5.85;100.00
54512;BME280;40419;47.438;19.026;2022-12-05T13:21:26;100345.22;;;5.72;100.00
54512;BME280;40419;47.438;19.026;2022-12-05T13:23:56;100350.09;;;5.76;100.00
54512;BME280;40419;47.438;19.026;2022-12-05T13:26:31;100352.59;;;5.70;100.00
54512;BME280;40419;47.438;19.026;2022-12-05T13:29:02;100350.88;;;5.60;100.00
54512;BME280;40419;47.438;19.026;2022-12-05T13:34:02;100358.97;;;5.68;100.00
54512;BME280;40419;47.438;19.026;2022-12-05T13:36:37;100362.75;;;5.58;100.00
54512;BME280;40419;47.438;19.026;2022-12-05T13:39:25;100367.84;;;5.69;100.00
54512;BME280;40419;47.438;19.026;2022-12-05T13:42:23;100360.91;;;5.58;100.00
54512;BME280;40419;47.438;19.026;2022-12-05T13:50:33;100358.81;;;5.70;100.00
54512;BME280;40419;47.438;19.026;2022-12-05T13:53:22;100366.28;;;5.58;100.00
54512;BME280;40419;47.438;19.026;2022-12-05T14:33:15;100363.41;;;5.52;100.00
54512;BME280;40419;47.438;19.026;2022-12-05T14:35:49;100359.13;;;5.67;100.00
54512;BME280;40419;47.438;19.026;2022-12-05T14:38:28;100358.94;;;5.60;100.00
54512;BME280;40419;47.438;19.026;2022-12-05T14:40:56;100355.75;;;5.65;100.00
54512;BME280;40419;47.438;19.026;2022-12-05T14:43:36;100362.38;;;5.79;100.00
54512;BME280;40419;47.438;19.026;2022-12-05T14:46:13;100364.34;;;5.68;100.00
54512;BME280;40419;47.438;19.026;2022-12-05T14:48:41;100352.75;;;5.68;100.00
54512;BME280;40419;47.438;19.026;2022-12-05T14:54:15;100346.91;;;5.73;100.00
54512;BME280;40419;47.438;19.026;2022-12-05T14:56:50;100358.22;;;5.58;100.00
54512;BME280;40419;47.438;19.026;2022-12-05T14:59:24;100348.53;;;5.65;100.00
54512;BME280;40419;47.438;19.026;2022-12-05T15:01:59;100360.13;;;5.66;100.00
54512;BME280;40419;47.438;19.026;2022-12-05T15:04:46;100357.34;;;5.76;100.00
54512;BME280;40419;47.438;19.026;2022-12-05T15:07:29;100343.00;;;5.67;100.00
54512;BME280;40419;47.438;19.026;2022-12-05T15:15:35;100343.97;;;5.92;100.00
54512;BME280;40419;47.438;19.026;2022-12-05T15:18:26;100354.84;;;5.82;100.00
54512;BME280;40419;47.438;19.026;2022-12-05T15:21:03;100351.00;;;5.85;100.00
54512;BME280;40419;47.438;19.026;2022-12-05T15:26:38;100346.66;;;5.92;100.00
54512;BME280;40419;47.438;19.026;2022-12-05T15:34:43;100317.69;;;5.78;100.00
54512;BME280;40419;47.438;19.026;2022-12-05T15:39:55;100318.09;;;5.91;100.00
54512;BME280;40419;47.438;19.026;2022-12-05T15:50:20;100309.69;;;5.86;100.00
54512;BME280;40419;47.438;19.026;2022-12-05T15:52:52;100302.13;;;5.81;100.00
54512;BME280;40419;47.438;19.026;2022-12-05T15:55:38;100297.22;;;5.77;100.00
54512;BME280;40419;47.438;19.026;2022-12-05T15:58:26;100300.53;;;5.71;100.00
54512;BME280;40419;47.438;19.026;2022-12-05T16:01:08;100306.47;;;5.82;100.00
54512;BME280;40419;47.438;19.026;2022-12-05T16:03:44;100309.69;;;5.86;100.00
54512;BME280;40419;47.438;19.026;2022-12-05T16:06:41;100334.78;;;5.68;100.00
54512;BME280;40419;47.438;19.026;2022-12-05T16:09:15;100328.50;;;5.86;100.00
54512;BME280;40419;47.438;19.026;2022-12-05T16:14:21;100317.53;;;5.79;100.00
54512;BME280;40419;47.438;19.026;2022-12-05T16:16:51;100320.00;;;5.99;100.00
54512;BME280;40419;47.438;19.026;2022-12-05T16:19:23;100318.91;;;5.83;100.00
54512;BME280;40419;47.438;19.026;2022-12-05T16:22:22;100311.66;;;5.76;100.00
54512;BME280;40419;47.438;19.026;2022-12-05T16:24:59;100309.53;;;5.88;100.00
54512;BME280;40419;47.438;19.026;2022-12-05T16:27:34;100323.78;;;5.80;100.00
54512;BME280;40419;47.438;19.026;2022-12-05T16:30:19;100328.66;;;5.84;100.00
54512;BME280;40419;47.438;19.026;2022-12-05T16:32:48;100326.50;;;5.88;100.00
54512;BME280;40419;47.438;19.026;2022-12-05T16:35:49;100332.84;;;5.87;100.00